Time;durP1;ratioP1;P1;durP2;ratioP2;P2;SDS_P1;SDS_P2;PMS_P1;PMS_P2;Temp;Humidity;BMP_temperature;BMP_pressure;BME280_temperature;BME280_humidity;BME280_pressure;Samples;Min_cycle;Max_cycle;Signal;HPM_P1;HPM_P2
2023/05/11 00:01:20;;;;;;;;;;;;;;;7.28;52.36;101827.78;108022;1256;66035;-82
2023/05/11 00:03:47;;;;;;;;;;;;;;;7.26;52.42;101826.77;107757;1262;125107;-83
2023/05/11 00:06:14;;;;;;;;;;;;;;;7.24;52.50;101827.04;107464;1258;62307;-82
2023/05/11 00:08:41;;;;;;;;;;;;;;;7.22;52.55;101829.35;107544;1261;125541;-81
2023/05/11 00:11:08;;;;;;;;;;;;;;;7.19;52.63;101826.25;107751;1258;73824;-81
2023/05/11 00:13:35;;;;;;;;;;;;;;;7.16;52.74;101824.86;107931;1256;65934;-83
2023/05/11 00:16:03;;;;;;;;;;;;;;;7.14;52.85;101826.34;107762;1257;267392;-82
2023/05/11 00:18:30;;;;;;;;;;;;;;;7.13;53.03;101826.11;108100;1256;60453;-82
2023/05/11 00:20:57;;;;;;;;;;;;;;;7.11;52.95;101828.08;108002;1257;124789;-83
2023/05/11 00:23:24;;;;;;;;;;;;;;;7.09;53.12;101828.30;107827;1257;73980;-83
2023/05/11 00:25:51;;;;;;;;;;;;;;;7.07;53.07;101832.05;108088;1257;67563;-83
2023/05/11 00:28:18;;;;;;;;;;;;;;;7.05;53.31;101834.36;108199;1258;124764;-83
2023/05/11 00:30:45;;;;;;;;;;;;;;;7.04;53.32;101836.04;108312;1257;60697;-83
2023/05/11 00:33:12;;;;;;;;;;;;;;;7.02;53.33;101832.95;108022;1257;124868;-83
2023/05/11 00:35:39;;;;;;;;;;;;;;;6.98;53.47;101834.52;107888;1261;75854;-83
2023/05/11 00:38:06;;;;;;;;;;;;;;;6.97;53.60;101831.63;107660;1258;67051;-83
2023/05/11 00:40:33;;;;;;;;;;;;;;;6.95;53.61;101833.78;107757;1257;124095;-83
2023/05/11 00:43:00;;;;;;;;;;;;;;;6.93;53.74;101831.73;107895;1257;62037;-83
2023/05/11 00:45:27;;;;;;;;;;;;;;;6.89;53.85;101830.30;107708;1260;124747;-83
2023/05/11 00:47:54;;;;;;;;;;;;;;;6.86;53.91;101832.07;107778;1256;73930;-83
2023/05/11 00:50:21;;;;;;;;;;;;;;;6.84;53.99;101836.27;107599;1257;124663;-83
2023/05/11 00:52:48;;;;;;;;;;;;;;;6.80;54.14;101832.96;107985;1257;71385;-83
2023/05/11 00:55:15;;;;;;;;;;;;;;;6.78;54.35;101833.17;108015;1258;60805;-83
2023/05/11 00:57:42;;;;;;;;;;;;;;;6.76;54.32;101835.64;107715;1257;124741;-83
2023/05/11 01:00:10;;;;;;;;;;;;;;;6.73;54.39;101835.65;108620;1257;74096;-84
2023/05/11 01:02:37;;;;;;;;;;;;;;;6.71;54.60;101840.08;108889;1256;124403;-83
2023/05/11 01:05:04;;;;;;;;;;;;;;;6.68;54.68;101837.47;108877;1257;71415;-83
2023/05/11 01:07:32;;;;;;;;;;;;;;;6.64;54.71;101834.80;108954;1256;59959;-83
2023/05/11 01:10:02;;;;;;;;;;;;;;;6.61;54.80;101839.70;108917;1256;124823;-83
2023/05/11 01:12:34;;;;;;;;;;;;;;;6.59;54.95;101839.57;107600;1257;73738;-83
2023/05/11 01:15:08;;;;;;;;;;;;;;;6.56;55.13;101838.00;107237;1257;124799;-83
2023/05/11 01:17:55;;;;;;;;;;;;;;;6.53;55.09;101839.77;107733;1257;71087;-84
2023/05/11 01:20:26;;;;;;;;;;;;;;;6.51;55.24;101839.27;107474;1257;125077;-82
2023/05/11 01:23:08;;;;;;;;;;;;;;;6.47;55.37;101840.95;107659;1259;60962;-82
2023/05/11 01:25:47;;;;;;;;;;;;;;;6.45;55.49;101843.62;107799;1257;75593;-82
2023/05/11 01:28:20;;;;;;;;;;;;;;;6.41;55.49;101841.48;107517;1260;125320;-83
2023/05/11 01:30:50;;;;;;;;;;;;;;;6.39;55.51;101838.92;107641;1257;73169;-83
2023/05/11 01:33:19;;;;;;;;;;;;;;;6.37;55.56;101840.54;107571;1256;125338;-82
2023/05/11 01:35:48;;;;;;;;;;;;;;;6.34;55.68;101841.40;107641;1257;61837;-82
2023/05/11 01:38:14;;;;;;;;;;;;;;;6.31;55.57;101843.87;107651;1257;125600;-81
2023/05/11 01:40:41;;;;;;;;;;;;;;;6.29;55.66;101847.70;107810;1257;64777;-82
2023/05/11 01:43:11;;;;;;;;;;;;;;;6.27;55.77;101849.85;107721;1257;72708;-82
2023/05/11 01:45:39;;;;;;;;;;;;;;;6.22;55.84;101851.02;107562;1257;125160;-82
2023/05/11 01:48:13;;;;;;;;;;;;;;;6.20;55.99;101851.93;107776;1257;60639;-83
2023/05/11 01:50:40;;;;;;;;;;;;;;;6.19;56.06;101855.31;107920;1257;125302;-83
2023/05/11 01:53:07;;;;;;;;;;;;;;;6.16;56.08;101852.00;107948;1256;66094;-82
2023/05/11 01:55:36;;;;;;;;;;;;;;;6.13;56.13;101851.16;107940;1257;73036;-83
2023/05/11 01:58:03;;;;;;;;;;;;;;;6.12;56.25;101849.66;107634;1257;124926;-83
2023/05/11 02:00:30;;;;;;;;;;;;;;;6.10;56.24;101852.33;107719;1257;62057;-83
2023/05/11 02:02:58;;;;;;;;;;;;;;;6.07;56.15;101856.85;107717;1256;124170;-83
2023/05/11 02:05:25;;;;;;;;;;;;;;;6.04;56.26;101856.34;107855;1260;67312;-83
2023/05/11 02:07:51;;;;;;;;;;;;;;;6.01;56.26;101858.11;107784;1258;73202;-83
2023/05/11 02:10:18;;;;;;;;;;;;;;;5.98;56.24;101863.83;107568;1257;125014;-83
2023/05/11 02:12:45;;;;;;;;;;;;;;;5.94;56.58;101863.77;107701;1257;60103;-82
2023/05/11 02:15:13;;;;;;;;;;;;;;;5.93;56.60;101868.15;107647;1256;124674;-83
2023/05/11 02:17:40;;;;;;;;;;;;;;;5.90;56.60;101867.80;108744;1256;65822;-82
2023/05/11 02:20:07;;;;;;;;;;;;;;;5.87;56.72;101868.16;108788;1257;73051;-83
2023/05/11 02:22:34;;;;;;;;;;;;;;;5.85;56.70;101867.15;108779;1256;60265;-83
2023/05/11 02:25:02;;;;;;;;;;;;;;;5.82;56.72;101870.66;108816;1256;60248;-82
2023/05/11 02:27:31;;;;;;;;;;;;;;;5.80;56.91;101872.43;108716;1262;124408;-83
2023/05/11 02:29:58;;;;;;;;;;;;;;;5.78;56.94;101876.45;108855;1257;67042;-83
2023/05/11 02:32:28;;;;;;;;;;;;;;;5.75;56.86;101870.70;108711;1256;125072;-83
2023/05/11 02:35:04;;;;;;;;;;;;;;;5.73;56.95;101874.40;108873;1256;60180;-83
2023/05/11 02:37:32;;;;;;;;;;;;;;;5.70;57.02;101873.58;108734;1257;60179;-83
2023/05/11 02:40:00;;;;;;;;;;;;;;;5.70;57.14;101879.26;108831;1256;124784;-83
2023/05/11 02:42:29;;;;;;;;;;;;;;;5.68;57.31;101877.39;108777;1259;66823;-83
2023/05/11 02:45:01;;;;;;;;;;;;;;;5.67;57.40;101881.16;108682;1257;124871;-83
2023/05/11 02:47:30;;;;;;;;;;;;;;;5.67;57.40;101879.60;108908;1257;60054;-83
2023/05/11 02:49:57;;;;;;;;;;;;;;;5.67;57.45;101875.06;108873;1257;59854;-83
2023/05/11 02:52:25;;;;;;;;;;;;;;;5.67;57.57;101879.28;108731;1257;125151;-84
2023/05/11 02:54:52;;;;;;;;;;;;;;;5.68;57.65;101875.27;108552;1256;67592;-83
2023/05/11 02:57:19;;;;;;;;;;;;;;;5.69;57.73;101876.81;107583;1257;124785;-83
2023/05/11 02:59:46;;;;;;;;;;;;;;;5.71;57.70;101878.31;107604;1257;61546;-82
2023/05/11 03:02:13;;;;;;;;;;;;;;;5.73;57.75;101880.35;107425;1257;124289;-83
2023/05/11 03:04:41;;;;;;;;;;;;;;;5.74;57.74;101879.22;107515;1257;75229;-83
2023/05/11 03:07:08;;;;;;;;;;;;;;;5.78;57.85;101880.13;107503;1259;65553;-83
2023/05/11 03:09:36;;;;;;;;;;;;;;;5.80;57.85;101881.15;107586;1257;124466;-82
2023/05/11 03:12:03;;;;;;;;;;;;;;;5.84;58.00;101878.77;107802;1256;61861;-82
2023/05/11 03:14:31;;;;;;;;;;;;;;;5.88;57.85;101872.25;107651;1256;124788;-83
2023/05/11 03:17:01;;;;;;;;;;;;;;;5.94;57.99;101871.23;107727;1257;74231;-83
2023/05/11 03:19:28;;;;;;;;;;;;;;;6.02;57.86;101876.08;107826;1256;67311;-83
2023/05/11 03:21:55;;;;;;;;;;;;;;;6.10;57.90;101879.52;107629;1257;127133;-83
2023/05/11 03:24:22;;;;;;;;;;;;;;;6.20;57.90;101883.81;107736;1257;62053;-83
2023/05/11 03:26:49;;;;;;;;;;;;;;;6.31;57.85;101882.04;107451;1258;124870;-82
2023/05/11 03:29:16;;;;;;;;;;;;;;;6.46;57.99;101880.47;107592;1256;74142;-83
2023/05/11 03:31:43;;;;;;;;;;;;;;;6.62;57.80;101883.01;108015;1256;65450;-83
2023/05/11 03:34:10;;;;;;;;;;;;;;;6.92;58.06;101886.82;108051;1256;123323;-83
2023/05/11 03:36:37;;;;;;;;;;;;;;;7.57;58.31;101885.42;107932;1257;59969;-83
2023/05/11 03:39:04;;;;;;;;;;;;;;;8.64;58.47;101886.91;108791;1256;124579;-82
2023/05/11 03:41:31;;;;;;;;;;;;;;;10.25;58.28;101880.89;108961;1257;74173;-82
2023/05/11 03:43:58;;;;;;;;;;;;;;;12.04;57.06;101878.90;108876;1257;65446;-83
2023/05/11 03:46:25;;;;;;;;;;;;;;;13.68;55.03;101873.01;107764;1256;124534;-82
2023/05/11 03:48:52;;;;;;;;;;;;;;;15.15;53.02;101872.96;107496;1257;61688;-83
2023/05/11 03:51:19;;;;;;;;;;;;;;;16.38;50.87;101871.57;107551;1258;125334;-82
2023/05/11 03:53:46;;;;;;;;;;;;;;;17.46;49.03;101871.28;107631;1257;75354;-84
2023/05/11 03:56:13;;;;;;;;;;;;;;;18.48;47.35;101872.94;107456;1256;125504;-82
2023/05/11 03:58:41;;;;;;;;;;;;;;;19.41;45.72;101873.92;107496;1257;71990;-81
2023/05/11 04:01:08;;;;;;;;;;;;;;;20.31;44.32;101872.41;107830;1256;60532;-85
2023/05/11 04:03:45;;;;;;;;;;;;;;;21.20;43.12;101872.33;107862;1256;125364;-82
2023/05/11 04:06:12;;;;;;;;;;;;;;;22.07;41.65;101868.52;108044;1262;75683;-84
2023/05/11 04:08:39;;;;;;;;;;;;;;;22.86;40.50;101868.77;107661;1257;124913;-85
2023/05/11 04:11:06;;;;;;;;;;;;;;;23.69;39.48;101868.16;107722;1256;71077;-84
2023/05/11 04:13:40;;;;;;;;;;;;;;;24.44;38.12;101862.00;107591;1256;62089;-85
2023/05/11 04:16:07;;;;;;;;;;;;;;;25.24;37.23;101859.08;107319;1257;125003;-86
2023/05/11 04:18:34;;;;;;;;;;;;;;;26.10;36.10;101861.86;107673;1256;75510;-84
2023/05/11 04:21:01;;;;;;;;;;;;;;;26.74;34.95;101861.32;107401;1256;125039;-84
2023/05/11 04:23:28;;;;;;;;;;;;;;;27.25;34.00;101865.22;107824;1256;72660;-83
2023/05/11 04:25:55;;;;;;;;;;;;;;;27.93;32.93;101863.52;107699;1256;60295;-82
2023/05/11 04:28:26;;;;;;;;;;;;;;;28.51;31.77;101861.95;107235;1262;124775;-83
2023/05/11 04:30:54;;;;;;;;;;;;;;;28.99;30.88;101860.37;107753;1259;74225;-84
2023/05/11 04:33:21;;;;;;;;;;;;;;;29.43;30.17;101864.45;107272;1257;124749;-83
2023/05/11 04:35:54;;;;;;;;;;;;;;;29.87;29.37;101867.70;107374;1260;72689;-83
2023/05/11 04:38:21;;;;;;;;;;;;;;;30.40;28.60;101871.98;107131;1256;124800;-85
2023/05/11 04:40:49;;;;;;;;;;;;;;;30.90;28.02;101876.46;107424;1256;61803;-87
2023/05/11 04:43:16;;;;;;;;;;;;;;;31.40;27.26;101875.92;107556;1256;66595;-87
2023/05/11 04:45:51;;;;;;;;;;;;;;;31.72;26.54;101881.21;107287;1257;125641;-88
2023/05/11 04:48:25;;;;;;;;;;;;;;;32.13;26.01;101881.54;107139;1257;63332;-85
2023/05/11 04:50:53;;;;;;;;;;;;;;;32.63;25.24;101882.55;107288;1256;124729;-85
2023/05/11 04:53:22;;;;;;;;;;;;;;;32.77;24.43;101880.64;107434;1256;62063;-87
2023/05/11 04:55:59;;;;;;;;;;;;;;;32.91;24.23;101877.89;107436;1256;66185;-88
2023/05/11 04:58:26;;;;;;;;;;;;;;;33.25;23.85;101883.07;107245;1257;124965;-87
2023/05/11 05:00:59;;;;;;;;;;;;;;;33.57;23.48;101882.08;107369;1260;62922;-87
2023/05/11 05:03:31;;;;;;;;;;;;;;;33.91;23.18;101888.45;107376;1256;124791;-90
2023/05/11 05:06:31;;;;;;;;;;;;;;;34.19;22.72;101893.10;107355;1256;61157;-90
2023/05/11 05:09:13;;;;;;;;;;;;;;;34.51;22.20;101896.77;107191;1256;125183;-90
2023/05/11 05:12:08;;;;;;;;;;;;;;;34.79;21.84;101897.52;107277;1257;61547;-90
2023/05/11 05:14:45;;;;;;;;;;;;;;;34.94;21.34;101896.84;107204;1256;124825;-87
2023/05/11 05:17:12;;;;;;;;;;;;;;;35.11;21.05;101896.34;107322;1256;61964;-87
2023/05/11 05:19:39;;;;;;;;;;;;;;;35.24;20.84;101898.13;107679;1256;60768;-87
2023/05/11 05:22:10;;;;;;;;;;;;;;;35.03;20.34;101894.06;107360;1256;124592;-87
2023/05/11 05:24:37;;;;;;;;;;;;;;;34.81;20.20;101897.45;107370;1255;60720;-88
2023/05/11 05:27:04;;;;;;;;;;;;;;;34.76;20.18;101895.73;107364;1257;124609;-87
2023/05/11 05:29:33;;;;;;;;;;;;;;;34.75;20.14;101898.88;107595;1256;62992;-88
2023/05/11 05:32:00;;;;;;;;;;;;;;;34.33;19.75;101900.30;107711;1257;60763;-88
2023/05/11 05:34:27;;;;;;;;;;;;;;;32.58;19.43;101902.15;107365;1257;124545;-87
2023/05/11 05:36:54;;;;;;;;;;;;;;;30.25;19.76;101902.70;107567;1256;61570;-89
2023/05/11 05:39:21;;;;;;;;;;;;;;;27.75;20.52;101908.91;108207;1257;124854;-89
2023/05/11 05:41:51;;;;;;;;;;;;;;;25.70;21.41;101910.27;107540;1257;62139;-89
2023/05/11 05:44:18;;;;;;;;;;;;;;;23.86;22.23;101915.26;107777;1256;125098;-88
2023/05/11 05:46:45;;;;;;;;;;;;;;;22.43;23.14;101919.29;107849;1256;75509;-89
2023/05/11 05:49:12;;;;;;;;;;;;;;;21.19;24.12;101925.15;107891;1257;65572;-88
2023/05/11 05:51:39;;;;;;;;;;;;;;;20.17;25.15;101927.79;107812;1256;124398;-88
2023/05/11 05:54:15;;;;;;;;;;;;;;;19.35;25.82;101927.27;107883;1257;60379;-88
2023/05/11 05:56:43;;;;;;;;;;;;;;;18.59;26.75;101931.55;107625;1258;124642;-88
2023/05/11 05:59:12;;;;;;;;;;;;;;;17.98;27.42;101933.11;107803;1256;75264;-89
2023/05/11 06:01:45;;;;;;;;;;;;;;;17.48;28.12;101932.55;107463;1256;67069;-88
2023/05/11 06:04:14;;;;;;;;;;;;;;;17.09;29.00;101936.17;107430;1256;124590;-89
2023/05/11 06:07:03;;;;;;;;;;;;;;;16.79;29.49;101931.55;107346;1256;61310;-89
2023/05/11 06:09:39;;;;;;;;;;;;;;;16.45;29.98;101940.98;106880;1257;124752;-89
2023/05/11 06:12:09;;;;;;;;;;;;;;;16.17;30.60;101943.23;107096;1259;74593;-88
2023/05/11 06:14:42;;;;;;;;;;;;;;;15.97;31.04;101941.60;107495;1257;124680;-88
2023/05/11 06:17:15;;;;;;;;;;;;;;;15.81;31.40;101943.17;107704;1256;73198;-89
2023/05/11 06:19:48;;;;;;;;;;;;;;;15.58;31.65;101941.91;107562;1256;61838;-89
2023/05/11 06:22:16;;;;;;;;;;;;;;;15.41;32.21;101940.08;107123;1257;124598;-88
2023/05/11 06:24:44;;;;;;;;;;;;;;;15.32;32.68;101944.48;107337;1256;73955;-87
2023/05/11 06:27:17;;;;;;;;;;;;;;;15.25;32.97;101947.51;107381;1257;124343;-87
2023/05/11 06:30:03;;;;;;;;;;;;;;;15.17;33.18;101945.34;107150;1256;71978;-87
2023/05/11 06:32:32;;;;;;;;;;;;;;;15.11;33.41;101946.08;107136;1257;124542;-89
2023/05/11 06:35:23;;;;;;;;;;;;;;;15.09;33.58;101945.85;107451;1256;62066;-89
2023/05/11 06:37:56;;;;;;;;;;;;;;;15.08;33.74;101945.47;107310;1256;75810;-89
2023/05/11 06:40:29;;;;;;;;;;;;;;;15.07;33.81;101943.83;107203;1256;124769;-89
2023/05/11 06:43:00;;;;;;;;;;;;;;;15.07;33.87;101945.80;107280;1257;72621;-87
2023/05/11 06:45:40;;;;;;;;;;;;;;;15.07;34.16;101941.36;107285;1256;124503;-88
2023/05/11 06:48:08;;;;;;;;;;;;;;;15.09;34.28;101942.33;107480;1256;60607;-88
2023/05/11 06:50:35;;;;;;;;;;;;;;;15.09;34.37;101940.17;106915;1264;124549;-88
2023/05/11 06:53:02;;;;;;;;;;;;;;;15.10;34.59;101944.64;107310;1256;66783;-88
2023/05/11 06:55:47;;;;;;;;;;;;;;;15.09;34.60;101940.36;107204;1256;73163;-88
2023/05/11 06:58:15;;;;;;;;;;;;;;;15.05;34.53;101945.75;107477;1256;124501;-88
2023/05/11 07:00:45;;;;;;;;;;;;;;;15.00;34.85;101941.20;107676;1256;61750;-89
2023/05/11 07:03:13;;;;;;;;;;;;;;;15.04;35.06;101940.74;107195;1256;124428;-90
2023/05/11 07:05:49;;;;;;;;;;;;;;;15.09;35.10;101941.76;107371;1259;65886;-90
2023/05/11 07:08:30;;;;;;;;;;;;;;;15.15;35.44;101941.74;107278;1257;71424;-89
2023/05/11 07:11:04;;;;;;;;;;;;;;;15.24;35.48;101939.50;107402;1256;62125;-87
2023/05/11 07:13:38;;;;;;;;;;;;;;;15.32;35.44;101935.83;107438;1256;60217;-87
2023/05/11 07:16:05;;;;;;;;;;;;;;;15.38;35.18;101937.55;107497;1256;124618;-88
2023/05/11 07:18:38;;;;;;;;;;;;;;;15.43;35.02;101934.84;107823;1256;68004;-88
2023/05/11 07:21:05;;;;;;;;;;;;;;;15.49;35.07;101932.50;107450;1257;124393;-89
2023/05/11 07:23:51;;;;;;;;;;;;;;;15.57;35.19;101934.27;107589;1256;61892;-89
2023/05/11 07:26:28;;;;;;;;;;;;;;;15.64;34.82;101938.16;107366;1256;61871;-89
2023/05/11 07:29:05;;;;;;;;;;;;;;;15.68;34.75;101940.73;107152;1256;75521;-89
2023/05/11 07:31:38;;;;;;;;;;;;;;;15.74;34.43;101941.80;107159;1257;67356;-87
2023/05/11 07:34:06;;;;;;;;;;;;;;;15.82;34.21;101937.01;107029;1260;124941;-88
2023/05/11 07:36:39;;;;;;;;;;;;;;;15.88;34.23;101936.44;107141;1257;61169;-87
2023/05/11 07:39:07;;;;;;;;;;;;;;;15.96;34.41;101937.30;107026;1256;124761;-87
2023/05/11 07:41:35;;;;;;;;;;;;;;;16.05;34.42;101938.05;107346;1256;73589;-87
2023/05/11 07:44:02;;;;;;;;;;;;;;;16.13;34.09;101942.30;107597;1256;67153;-87
2023/05/11 07:46:38;;;;;;;;;;;;;;;16.21;34.02;101937.48;106991;1260;124721;-87
2023/05/11 07:49:07;;;;;;;;;;;;;;;16.29;33.88;101938.19;107402;1256;62529;-87
2023/05/11 07:51:40;;;;;;;;;;;;;;;16.37;33.80;101933.73;107018;1262;124580;-88
2023/05/11 07:54:08;;;;;;;;;;;;;;;16.45;33.69;101933.90;107372;1256;75882;-88
2023/05/11 07:57:13;;;;;;;;;;;;;;;16.50;33.61;101930.11;107180;1257;124897;-87
2023/05/11 07:59:46;;;;;;;;;;;;;;;16.58;33.36;101922.98;107310;1256;71015;-89
2023/05/11 08:02:38;;;;;;;;;;;;;;;16.63;33.43;101920.78;107146;1256;64347;-87
2023/05/11 08:05:19;;;;;;;;;;;;;;;16.70;33.59;101918.96;107218;1256;61271;-89
2023/05/11 08:07:53;;;;;;;;;;;;;;;16.76;33.10;101921.56;107374;1256;75424;-90
2023/05/11 08:10:20;;;;;;;;;;;;;;;16.78;32.89;101915.20;107548;1256;124533;-89
2023/05/11 08:12:48;;;;;;;;;;;;;;;16.82;32.62;101922.05;107621;1259;72566;-89
2023/05/11 08:15:15;;;;;;;;;;;;;;;16.84;32.48;101919.27;107451;1258;124879;-89
2023/05/11 08:17:49;;;;;;;;;;;;;;;16.88;32.38;101918.26;107243;1259;62994;-90
2023/05/11 08:20:16;;;;;;;;;;;;;;;16.93;32.30;101921.17;107215;1260;75464;-89
2023/05/11 08:22:46;;;;;;;;;;;;;;;16.96;32.23;101924.42;107513;1260;125397;-89
2023/05/11 08:25:26;;;;;;;;;;;;;;;17.01;32.27;101919.19;107551;1256;72664;-87
2023/05/11 08:27:53;;;;;;;;;;;;;;;17.06;32.33;101919.98;107665;1256;124623;-87
2023/05/11 08:30:27;;;;;;;;;;;;;;;17.10;31.86;101923.08;107620;1256;60870;-88
2023/05/11 08:33:16;;;;;;;;;;;;;;;17.10;31.75;101921.30;107187;1256;124956;-88
2023/05/11 08:35:55;;;;;;;;;;;;;;;17.17;31.73;101919.45;107470;1256;65444;-88
2023/05/11 08:38:30;;;;;;;;;;;;;;;17.23;31.53;101921.51;107040;1256;71402;-88
2023/05/11 08:41:03;;;;;;;;;;;;;;;17.29;31.37;101921.59;107013;1256;60990;-88
2023/05/11 08:43:43;;;;;;;;;;;;;;;17.33;31.48;101920.25;107415;1256;62063;-87
2023/05/11 08:46:11;;;;;;;;;;;;;;;17.39;31.41;101919.11;107289;1256;125276;-88
2023/05/11 08:48:38;;;;;;;;;;;;;;;17.43;30.91;101916.85;107341;1256;65859;-88
2023/05/11 08:51:17;;;;;;;;;;;;;;;17.45;30.90;101917.77;107263;1256;124819;-88
2023/05/11 08:53:44;;;;;;;;;;;;;;;17.49;30.56;101914.10;107233;1257;62180;-88
2023/05/11 08:56:13;;;;;;;;;;;;;;;17.52;30.55;101912.02;107142;1256;63029;-88
2023/05/11 08:58:48;;;;;;;;;;;;;;;17.56;30.58;101913.49;107215;1256;125175;-88
2023/05/11 09:01:15;;;;;;;;;;;;;;;17.58;30.41;101915.13;107352;1256;65245;-89
2023/05/11 09:03:43;;;;;;;;;;;;;;;17.57;30.05;101912.63;107445;1257;124489;-88
2023/05/11 09:06:10;;;;;;;;;;;;;;;17.55;29.79;101913.12;107425;1256;62022;-89
2023/05/11 09:08:49;;;;;;;;;;;;;;;17.57;29.42;101914.41;107197;1256;124714;-88
2023/05/11 09:11:26;;;;;;;;;;;;;;;17.56;29.31;101915.80;107376;1257;75494;-89
2023/05/11 09:14:07;;;;;;;;;;;;;;;17.59;29.66;101905.38;107194;1256;68928;-88
2023/05/11 09:16:36;;;;;;;;;;;;;;;17.64;29.56;101916.27;107340;1256;124763;-88
2023/05/11 09:19:19;;;;;;;;;;;;;;;17.65;29.28;101912.92;107325;1256;62153;-89
2023/05/11 09:21:46;;;;;;;;;;;;;;;17.64;29.16;101912.21;107352;1256;124655;-89
2023/05/11 09:24:20;;;;;;;;;;;;;;;17.67;29.22;101908.88;107548;1256;75430;-89
2023/05/11 09:27:14;;;;;;;;;;;;;;;17.69;29.03;101913.69;107665;1256;124668;-89
2023/05/11 09:29:41;;;;;;;;;;;;;;;17.70;29.00;101909.63;107526;1256;71362;-89
2023/05/11 09:32:17;;;;;;;;;;;;;;;17.71;29.13;101904.31;107398;1256;62269;-89
2023/05/11 09:34:50;;;;;;;;;;;;;;;17.73;28.94;101909.85;107426;1257;125028;-88
2023/05/11 09:37:23;;;;;;;;;;;;;;;17.73;28.91;101904.70;107505;1259;74236;-88
2023/05/11 09:39:52;;;;;;;;;;;;;;;17.75;28.94;101904.19;107289;1257;124696;-89
2023/05/11 09:42:23;;;;;;;;;;;;;;;17.74;28.80;101900.27;107579;1259;71420;-89
2023/05/11 09:44:50;;;;;;;;;;;;;;;17.76;29.11;101899.23;107528;1256;124647;-89
2023/05/11 09:47:21;;;;;;;;;;;;;;;17.84;28.96;101902.55;107697;1256;61789;-88
2023/05/11 09:49:57;;;;;;;;;;;;;;;17.90;28.91;101901.40;107346;1256;74247;-88
2023/05/11 09:52:32;;;;;;;;;;;;;;;17.93;28.93;101898.79;107249;1256;124551;-89
2023/05/11 09:55:08;;;;;;;;;;;;;;;17.94;28.58;101898.98;107432;1257;72408;-89
2023/05/11 09:57:35;;;;;;;;;;;;;;;17.91;28.41;101895.56;107448;1256;124674;-89
2023/05/11 10:00:04;;;;;;;;;;;;;;;17.90;28.46;101892.17;107204;1256;62041;-89
2023/05/11 10:02:35;;;;;;;;;;;;;;;17.92;28.51;101896.82;106903;1258;124708;-88
2023/05/11 10:05:14;;;;;;;;;;;;;;;17.96;28.36;101894.55;107147;1256;66437;-89
2023/05/11 10:08:10;;;;;;;;;;;;;;;17.99;28.42;101893.36;107200;1256;71407;-88
2023/05/11 10:10:52;;;;;;;;;;;;;;;18.05;28.42;101892.20;107498;1257;125647;-91
2023/05/11 10:13:39;;;;;;;;;;;;;;;18.09;28.16;101890.45;107363;1256;61134;-88
2023/05/11 10:16:07;;;;;;;;;;;;;;;18.11;28.32;101884.61;107829;1256;124570;-88
2023/05/11 10:18:35;;;;;;;;;;;;;;;18.16;28.51;101885.74;108024;1256;65800;-89
2023/05/11 10:21:12;;;;;;;;;;;;;;;18.22;28.53;101882.61;107841;1260;124860;-90
2023/05/11 10:23:39;;;;;;;;;;;;;;;18.27;28.59;101880.00;107708;1256;62157;-88
2023/05/11 10:26:16;;;;;;;;;;;;;;;18.31;28.65;101874.73;107583;1256;62031;-88
2023/05/11 10:28:46;;;;;;;;;;;;;;;18.35;28.44;101872.99;107329;1257;124994;-89
2023/05/11 10:31:13;;;;;;;;;;;;;;;18.38;28.41;101882.45;107372;1257;68540;-88
2023/05/11 10:33:52;;;;;;;;;;;;;;;18.38;28.25;101872.67;107287;1256;124478;-89
2023/05/11 10:36:26;;;;;;;;;;;;;;;18.34;27.87;101876.52;107233;1257;60547;-89
2023/05/11 10:38:56;;;;;;;;;;;;;;;18.26;27.94;101870.05;107345;1256;124730;-89
2023/05/11 10:41:29;;;;;;;;;;;;;;;18.29;27.85;101872.58;107315;1260;73917;-88
2023/05/11 10:44:00;;;;;;;;;;;;;;;18.29;27.62;101872.40;107216;1256;67090;-89
2023/05/11 10:46:36;;;;;;;;;;;;;;;18.25;27.57;101872.53;107756;1256;124427;-89
2023/05/11 10:49:08;;;;;;;;;;;;;;;18.24;27.66;101867.19;107875;1256;60495;-89
2023/05/11 10:52:02;;;;;;;;;;;;;;;18.22;27.83;101863.61;107402;1256;124889;-88
2023/05/11 10:54:45;;;;;;;;;;;;;;;18.23;27.60;101863.27;107465;1256;74575;-89
2023/05/11 10:57:15;;;;;;;;;;;;;;;18.24;27.88;101859.37;107510;1256;124607;-88
2023/05/11 10:59:51;;;;;;;;;;;;;;;18.32;28.15;101865.67;107688;1257;73079;-89
2023/05/11 11:02:20;;;;;;;;;;;;;;;18.40;27.87;101868.97;107901;1256;60196;-89
2023/05/11 11:04:48;;;;;;;;;;;;;;;18.41;27.57;101861.88;107769;1257;124496;-90
2023/05/11 11:07:20;;;;;;;;;;;;;;;18.37;27.34;101863.95;107827;1257;74063;-89
2023/05/11 11:09:55;;;;;;;;;;;;;;;18.33;27.38;101863.37;107459;1256;124580;-89
2023/05/11 11:12:25;;;;;;;;;;;;;;;18.32;27.43;101863.72;107656;1256;72443;-89
2023/05/11 11:14:59;;;;;;;;;;;;;;;18.32;27.26;101861.94;107484;1256;124765;-89
2023/05/11 11:17:30;;;;;;;;;;;;;;;18.29;27.40;101857.82;107316;1257;62115;-89
2023/05/11 11:19:57;;;;;;;;;;;;;;;18.36;27.82;101857.89;107216;1256;75226;-89
2023/05/11 11:22:34;;;;;;;;;;;;;;;18.44;27.80;101856.02;107438;1257;124896;-90
2023/05/11 11:25:23;;;;;;;;;;;;;;;18.50;27.72;101855.19;107368;1256;71077;-90
2023/05/11 11:27:51;;;;;;;;;;;;;;;18.55;27.68;101859.50;107150;1256;124853;-90
2023/05/11 11:30:20;;;;;;;;;;;;;;;18.61;27.80;101863.48;107194;1262;61308;-88
2023/05/11 11:33:00;;;;;;;;;;;;;;;18.65;27.64;101861.20;107420;1256;124631;-89
2023/05/11 11:35:54;;;;;;;;;;;;;;;18.68;27.67;101865.86;107537;1257;65384;-89
2023/05/11 11:38:21;;;;;;;;;;;;;;;18.73;27.51;101866.62;107326;1256;70164;-89
2023/05/11 11:40:56;;;;;;;;;;;;;;;18.75;27.45;101858.27;107165;1256;124724;-89
2023/05/11 11:43:43;;;;;;;;;;;;;;;18.76;27.48;101855.26;107212;1256;60781;-89
2023/05/11 11:46:10;;;;;;;;;;;;;;;18.81;27.32;101860.13;107284;1256;124598;-87
2023/05/11 11:48:59;;;;;;;;;;;;;;;18.81;27.28;101853.91;107168;1256;65844;-88
2023/05/11 11:51:26;;;;;;;;;;;;;;;18.86;27.36;101854.84;107042;1256;71722;-88
2023/05/11 11:53:53;;;;;;;;;;;;;;;18.92;27.57;101858.09;107273;1257;62091;-88
2023/05/11 11:56:23;;;;;;;;;;;;;;;18.96;27.29;101859.73;107315;1257;60659;-90
2023/05/11 11:59:08;;;;;;;;;;;;;;;18.93;27.15;101851.16;107236;1258;76385;-89
2023/05/11 12:01:37;;;;;;;;;;;;;;;18.94;27.25;101859.00;107368;1256;67142;-88
2023/05/11 12:04:19;;;;;;;;;;;;;;;18.97;27.22;101854.58;104465;1292;599434;-90
2023/05/11 12:06:59;;;;;;;;;;;;;;;18.94;27.13;101853.67;106702;1269;58101;-90
2023/05/11 12:09:27;;;;;;;;;;;;;;;18.96;26.96;101855.11;106526;1275;123309;-90
2023/05/11 12:12:04;;;;;;;;;;;;;;;18.93;26.61;101855.25;107119;1270;70703;-89
2023/05/11 12:14:38;;;;;;;;;;;;;;;18.92;26.72;101856.14;108092;1257;67174;-90
2023/05/11 12:17:12;;;;;;;;;;;;;;;18.93;26.64;101857.03;107231;1256;414976;-90
2023/05/11 12:19:40;;;;;;;;;;;;;;;18.98;26.84;101857.98;107748;1255;59033;-90
2023/05/11 12:22:26;;;;;;;;;;;;;;;19.05;26.94;101856.59;107779;1255;123272;-88
2023/05/11 12:25:10;;;;;;;;;;;;;;;19.10;26.61;101859.30;108036;1255;70922;-89
2023/05/11 12:28:00;;;;;;;;;;;;;;;19.08;26.42;101852.19;107711;1254;123617;-89
2023/05/11 12:30:36;;;;;;;;;;;;;;;19.09;26.87;101850.77;107727;1256;72801;-89
2023/05/11 12:33:06;;;;;;;;;;;;;;;19.16;26.76;101855.61;107413;1256;123595;-89
2023/05/11 12:35:51;;;;;;;;;;;;;;;19.20;26.89;101851.20;107596;1254;59859;-89
2023/05/11 12:38:33;;;;;;;;;;;;;;;19.28;26.93;101854.09;107690;1254;72832;-89
2023/05/11 12:41:01;;;;;;;;;;;;;;;19.31;26.54;101857.85;107508;1257;123813;-90
2023/05/11 12:43:35;;;;;;;;;;;;;;;19.30;26.37;101852.86;107538;1254;72465;-88
2023/05/11 12:46:08;;;;;;;;;;;;;;;19.30;26.60;101850.54;107368;1258;123584;-90
2023/05/11 12:48:49;;;;;;;;;;;;;;;19.34;26.71;101846.48;107653;1254;59253;-90